Time;durP1;ratioP1;P1;durP2;ratioP2;P2;SDS_P1;SDS_P2;PMS_P1;PMS_P2;Temp;Humidity;BMP_temperature;BMP_pressure;BME280_temperature;BME280_humidity;BME280_pressure;Samples;Min_cycle;Max_cycle;Signal;HPM_P1;HPM_P2
2022/01/07 00:02:02;;;;;;;2.00;1.50;;;;;;;4.03;0.00;60892.56;4856801;28;20033;-86
2022/01/07 00:04:41;;;;;;;2.78;1.42;;;;;;;10.68;0.00;60892.56;4859157;28;20025;-87
2022/01/07 00:07:20;;;;;;;4.03;1.57;;;;;;;-145.06;0.00;60892.56;4856900;28;20061;-87
2022/01/07 00:09:59;;;;;;;3.87;1.50;;;;;;;3.91;0.00;60892.56;4856724;28;20603;-87
2022/01/07 00:12:38;;;;;;;2.00;1.50;;;;;;;3.94;0.00;60892.56;4856816;28;20490;-88
2022/01/07 00:15:18;;;;;;;1.90;1.40;;;;;;;4.19;0.00;60892.56;4856371;28;20618;-87
2022/01/07 00:17:58;;;;;;;2.63;1.50;;;;;;;-145.06;0.00;60892.56;4857678;28;20470;-88
2022/01/07 00:20:38;;;;;;;2.72;1.63;;;;;;;-145.06;0.00;60892.56;4855410;28;20049;-87
2022/01/07 00:23:17;;;;;;;;;;;;;;;4.02;0.00;60892.56;4844781;28;20033;-86
2022/01/07 00:25:56;;;;;;;2.60;1.38;;;;;;;4.03;0.00;60892.56;4857102;28;19913;-87
2022/01/07 00:28:35;;;;;;;2.53;1.60;;;;;;;4.19;0.00;60892.56;4870381;28;20491;-87
2022/01/07 00:31:14;;;;;;;2.22;1.63;;;;;;;-145.06;0.00;60892.56;4859252;28;20038;-87
2022/01/07 00:33:53;;;;;;;4.03;1.60;;;;;;;10.68;0.00;60892.56;4859477;28;20128;-87
2022/01/07 00:36:32;;;;;;;2.75;1.60;;;;;;;4.10;0.00;60892.56;4855699;28;20037;-87
2022/01/07 00:39:11;;;;;;;1.85;1.30;;;;;;;4.19;0.00;60892.56;4857008;28;20033;-87
2022/01/07 00:41:50;;;;;;;2.10;1.63;;;;;;;4.15;0.00;60892.56;4856369;28;20691;-87
2022/01/07 00:44:29;;;;;;;2.27;1.43;;;;;;;-145.06;0.00;60892.56;4856871;28;20273;-86
2022/01/07 00:47:08;;;;;;;2.43;1.50;;;;;;;-145.06;0.00;60892.56;4843449;28;20108;-86
2022/01/07 00:49:47;;;;;;;2.53;1.53;;;;;;;-145.06;0.00;60892.56;4855667;28;20765;-87
2022/01/07 00:52:26;;;;;;;2.00;1.43;;;;;;;-145.06;0.00;60892.56;4858441;28;20380;-87
2022/01/07 00:55:06;;;;;;;1.70;1.23;;;;;;;-145.06;0.00;60892.56;4856094;28;20773;-87
2022/01/07 00:57:45;;;;;;;1.90;1.17;;;;;;;-145.06;0.00;60892.56;4856822;28;20037;-88
2022/01/07 01:00:26;;;;;;;1.77;1.20;;;;;;;-145.06;0.00;60892.56;4855450;28;20053;-87
2022/01/07 01:03:05;;;;;;;2.38;1.38;;;;;;;-145.06;0.00;60892.56;4860855;28;20076;-87
2022/01/07 01:05:45;;;;;;;2.13;1.30;;;;;;;-145.06;0.00;60892.56;4846846;28;20038;-87
2022/01/07 01:08:26;;;;;;;2.65;1.10;;;;;;;-145.06;0.00;60892.56;4855908;28;20021;-88
2022/01/07 01:11:05;;;;;;;1.88;1.30;;;;;;;-145.06;0.00;60892.56;4855900;28;20041;-87
2022/01/07 01:13:44;;;;;;;2.07;1.20;;;;;;;-145.06;0.00;60892.56;4855678;28;20652;-86
2022/01/07 01:16:23;;;;;;;1.23;1.13;;;;;;;-145.06;0.00;60892.56;4855040;28;20108;-88
2022/01/07 01:19:04;;;;;;;1.88;0.90;;;;;;;-145.06;0.00;60892.56;4856292;28;20037;-87
2022/01/07 01:21:44;;;;;;;3.03;1.33;;;;;;;-145.06;0.00;60892.56;4859819;28;20518;-88
2022/01/07 01:24:23;;;;;;;2.80;1.60;;;;;;;-145.06;0.00;60892.56;4837241;28;20033;-87
2022/01/07 01:27:02;;;;;;;3.22;1.33;;;;;;;-145.06;0.00;60892.56;4846048;28;20037;-87
2022/01/07 01:29:42;;;;;;;1.60;1.05;;;;;;;-145.06;0.00;60892.56;4868733;28;20033;-87
2022/01/07 01:32:21;;;;;;;1.88;1.38;;;;;;;-145.06;0.00;60892.56;4858300;28;20036;-87
2022/01/07 01:35:00;;;;;;;1.63;1.33;;;;;;;4.47;0.00;60892.56;4860627;28;20065;-87
2022/01/07 01:37:40;;;;;;;1.57;1.13;;;;;;;-145.06;0.00;60892.56;4843907;28;20483;-88
2022/01/07 01:40:19;;;;;;;2.53;1.50;;;;;;;-145.06;0.00;60892.56;4855005;28;20276;-87
2022/01/07 01:43:00;;;;;;;2.10;1.20;;;;;;;-145.06;0.00;60892.56;4855590;28;20029;-87
2022/01/07 01:45:40;;;;;;;2.90;1.42;;;;;;;-145.06;0.00;60892.56;4856094;28;20490;-88
2022/01/07 01:48:20;;;;;;;;;;;;;;;-145.06;0.00;60892.56;4846240;28;20037;-87
2022/01/07 01:50:59;;;;;;;;;;;;;;;-145.06;0.00;60892.56;4849169;28;19909;-88
2022/01/07 01:53:41;;;;;;;2.20;1.50;;;;;;;-145.06;0.00;60892.56;4868837;28;19913;-87
2022/01/07 01:56:20;;;;;;;1.70;1.30;;;;;;;-145.06;0.00;60892.56;4857016;28;20033;-86
2022/01/07 01:58:59;;;;;;;3.33;1.77;;;;;;;-145.06;0.00;60892.56;4856215;28;20372;-86
2022/01/07 02:01:40;;;;;;;3.78;1.17;;;;;;;-145.06;0.00;60892.56;4856122;28;20108;-86
2022/01/07 02:04:20;;;;;;;2.53;1.20;;;;;;;-145.06;0.00;60892.56;4872305;28;20112;-87
2022/01/07 02:06:59;;;;;;;2.22;1.40;;;;;;;-145.06;0.00;60892.56;4840653;28;20112;-87
2022/01/07 02:09:38;;;;;;;4.23;1.63;;;;;;;-145.06;0.00;60892.56;4850588;28;20359;-87
2022/01/07 02:12:16;;;;;;;3.03;1.52;;;;;;;-145.06;0.00;60892.56;4855157;28;20288;-88
2022/01/07 02:14:58;;;;;;;2.47;1.63;;;;;;;-145.06;0.00;60892.56;4851074;28;20033;-88
2022/01/07 02:17:43;;;;;;;2.78;1.42;;;;;;;-145.06;0.00;60892.56;4850549;28;20372;-87
2022/01/07 02:20:25;;;;;;;3.35;1.45;;;;;;;-145.06;0.00;60892.56;4870988;28;20033;-87
2022/01/07 02:23:04;;;;;;;2.38;1.67;;;;;;;-145.06;0.00;60892.56;4854377;28;20029;-87
2022/01/07 02:25:45;;;;;;;4.10;1.80;;;;;;;-145.06;0.00;60892.56;4853075;28;20025;-88
2022/01/07 02:28:25;;;;;;;2.78;1.70;;;;;;;-145.06;0.00;60892.56;4847169;28;20033;-88
2022/01/07 02:31:04;;;;;;;;;;;;;;;-145.06;0.00;60892.56;4854810;28;20069;-87
2022/01/07 02:33:43;;;;;;;2.50;1.40;;;;;;;-145.06;0.00;60892.56;4860663;28;20019;-87
2022/01/07 02:36:22;;;;;;;3.10;1.45;;;;;;;-145.06;0.00;60892.56;4854533;28;20029;-86
2022/01/07 02:39:01;;;;;;;2.58;1.60;;;;;;;-145.06;0.00;60892.56;4860806;28;20057;-87
2022/01/07 02:41:40;;;;;;;2.13;1.30;;;;;;;-145.06;0.00;60892.56;4850828;28;20475;-87
2022/01/07 02:44:19;;;;;;;2.47;1.43;;;;;;;-145.06;0.00;60892.56;4855546;28;20033;-86
2022/01/07 02:46:58;;;;;;;2.38;1.35;;;;;;;-145.06;0.00;60892.56;4855115;28;20037;-86
2022/01/07 02:49:37;;;;;;;3.38;1.40;;;;;;;-145.06;0.00;60892.56;4867273;28;20652;-87
2022/01/07 02:52:16;;;;;;;2.20;1.50;;;;;;;-145.06;0.00;60892.56;4868026;28;20391;-87
2022/01/07 02:54:55;;;;;;;2.85;1.13;;;;;;;-145.06;0.00;60892.56;4855739;28;20281;-87
2022/01/07 02:57:34;;;;;;;2.03;1.43;;;;;;;-145.06;0.00;60892.56;4854672;28;20025;-87
2022/01/07 03:00:14;;;;;;;1.50;0.98;;;;;;;-145.06;0.00;60892.56;4853999;28;20261;-88
2022/01/07 03:02:54;;;;;;;;;;;;;;;-145.06;0.00;60892.56;4863166;28;20042;-87
2022/01/07 03:05:33;;;;;;;3.25;1.20;;;;;;;-145.06;0.00;60892.56;4860769;28;20256;-87
2022/01/07 03:08:13;;;;;;;1.92;1.17;;;;;;;-145.06;0.00;60892.56;4853727;28;20029;-87
2022/01/07 03:10:52;;;;;;;2.30;1.20;;;;;;;-145.06;0.00;60892.56;4852470;28;20026;-87
2022/01/07 03:13:31;;;;;;;1.33;1.10;;;;;;;-145.06;0.00;60892.56;4854665;28;20304;-87
2022/01/07 03:16:10;;;;;;;1.30;0.90;;;;;;;-145.06;0.00;60892.56;4852807;28;20302;-87
2022/01/07 03:18:49;;;;;;;1.75;1.13;;;;;;;187.52;0.00;60892.56;4850065;28;20061;-87
2022/01/07 03:21:28;;;;;;;1.52;1.10;;;;;;;-145.06;0.00;60892.56;4858514;28;20470;-88
2022/01/07 03:24:07;;;;;;;2.13;1.30;;;;;;;-145.06;0.00;60892.56;4856497;28;20419;-86
2022/01/07 03:26:46;;;;;;;1.85;1.30;;;;;;;-145.06;0.00;60892.56;4850970;28;20025;-88
2022/01/07 03:29:25;;;;;;;3.80;1.55;;;;;;;-145.06;0.00;60892.56;4854286;28;20116;-87
2022/01/07 03:32:04;;;;;;;1.37;0.90;;;;;;;-145.06;0.00;60892.56;4854277;28;20463;-86
2022/01/07 03:34:43;;;;;;;1.73;1.20;;;;;;;5.49;0.00;60892.56;4862354;28;20100;-86
2022/01/07 03:37:22;;;;;;;1.83;1.20;;;;;;;4.87;0.00;60892.56;4854146;28;20037;-87
2022/01/07 03:40:04;;;;;;;2.47;1.20;;;;;;;5.49;0.00;60892.56;4853910;28;20108;-87
2022/01/07 03:42:44;;;;;;;2.47;1.20;;;;;;;-145.06;0.00;60892.56;4853716;28;20632;-86
2022/01/07 03:45:23;;;;;;;6.38;1.60;;;;;;;-145.06;0.00;60892.56;4846017;28;20403;-87
2022/01/07 03:48:02;;;;;;;3.67;1.57;;;;;;;-145.06;0.00;60892.56;4839882;28;20026;-86
2022/01/07 03:50:41;;;;;;;1.73;1.20;;;;;;;-145.06;0.00;60892.56;4861830;28;20072;-86
2022/01/07 03:53:24;;;;;;;2.53;1.40;;;;;;;-145.06;0.00;60892.56;4845592;28;20034;-85
2022/01/07 03:56:04;;;;;;;2.72;1.30;;;;;;;-145.06;0.00;60892.56;4854900;28;20025;-87
2022/01/07 03:58:44;;;;;;;2.67;1.00;;;;;;;-145.06;0.00;60892.56;4856762;28;20108;-87
2022/01/07 04:01:23;;;;;;;2.28;1.02;;;;;;;-145.06;0.00;60892.56;4857306;28;20112;-86
2022/01/07 04:04:02;;;;;;;3.17;1.27;;;;;;;-145.06;0.00;60892.56;4863874;28;20037;-87
2022/01/07 04:06:41;;;;;;;2.35;1.10;;;;;;;-145.06;0.00;60892.56;4857805;28;20487;-86
2022/01/07 04:09:20;;;;;;;3.30;1.47;;;;;;;-145.06;0.00;60892.56;4856533;28;20057;-86
2022/01/07 04:12:00;;;;;;;2.17;1.05;;;;;;;-145.06;0.00;60892.56;4858079;28;20064;-86
2022/01/07 04:14:39;;;;;;;1.58;1.20;;;;;;;-145.06;0.00;60892.56;4857957;28;20049;-86
2022/01/07 04:17:18;;;;;;;2.07;1.23;;;;;;;-145.06;0.00;60892.56;4855265;28;20025;-87
2022/01/07 04:19:57;;;;;;;3.37;1.30;;;;;;;-145.06;0.00;60892.56;4854911;28;20272;-87
2022/01/07 04:22:36;;;;;;;2.60;1.13;;;;;;;-145.06;0.00;60892.56;4857589;28;20041;-86
2022/01/07 04:25:19;;;;;;;2.88;1.10;;;;;;;-145.06;0.00;60892.56;4854642;28;20486;-88
2022/01/07 04:28:04;;;;;;;3.10;1.30;;;;;;;-145.06;0.00;60892.56;4857920;28;20033;-87
2022/01/07 04:30:44;;;;;;;2.88;1.17;;;;;;;-145.06;0.00;60892.56;4852135;28;20033;-87
2022/01/07 04:33:29;;;;;;;1.85;1.20;;;;;;;-145.06;0.00;60892.56;4860933;28;20064;-87
2022/01/07 04:36:08;;;;;;;2.10;1.30;;;;;;;-145.06;0.00;60892.56;4854955;28;20029;-87
2022/01/07 04:38:46;;;;;;;2.80;1.38;;;;;;;-145.06;0.00;60892.56;4855888;28;20025;-87
2022/01/07 04:41:25;;;;;;;3.03;1.33;;;;;;;-145.06;0.00;60892.56;4842291;28;20479;-88
2022/01/07 04:44:04;;;;;;;2.43;1.30;;;;;;;-145.06;0.00;60892.56;4855081;28;20072;-89
2022/01/07 04:46:43;;;;;;;3.60;1.30;;;;;;;-145.06;0.00;60892.56;4854684;28;20272;-86
2022/01/07 04:49:22;;;;;;;2.20;1.23;;;;;;;-145.06;0.00;60892.56;4856009;28;20033;-87
2022/01/07 04:52:06;;;;;;;2.97;1.17;;;;;;;-145.06;0.00;60892.56;4856194;28;20033;-87
2022/01/07 04:54:45;;;;;;;2.33;1.20;;;;;;;-145.06;0.00;60892.56;4856595;28;20025;-87
2022/01/07 04:57:24;;;;;;;1.48;1.10;;;;;;;-145.06;0.00;60892.56;4856905;28;20026;-87
2022/01/07 05:00:04;;;;;;;2.65;1.10;;;;;;;-145.06;0.00;60892.56;4847512;28;20033;-87
2022/01/07 05:02:43;;;;;;;3.30;1.13;;;;;;;-145.06;0.00;60892.56;4852127;28;20029;-86
2022/01/07 05:05:22;;;;;;;3.08;1.40;;;;;;;-145.06;0.00;60892.56;4857664;28;20468;-86
2022/01/07 05:08:03;;;;;;;3.78;1.50;;;;;;;-145.06;0.00;60892.56;4855436;28;20037;-88
2022/01/07 05:10:42;;;;;;;3.38;1.30;;;;;;;-145.06;0.00;60892.56;4865720;28;20029;-86
2022/01/07 05:13:21;;;;;;;2.55;1.10;;;;;;;-145.06;0.00;60892.56;4846988;28;20034;-87
2022/01/07 05:16:00;;;;;;;3.37;1.20;;;;;;;-145.06;0.00;60892.56;4851941;28;20045;-88
2022/01/07 05:18:40;;;;;;;2.00;1.00;;;;;;;-145.06;0.00;60892.56;4856157;28;20056;-87
2022/01/07 05:21:19;;;;;;;1.88;0.95;;;;;;;-145.06;0.00;60892.56;4864149;28;20037;-85
2022/01/07 05:23:58;;;;;;;1.70;1.42;;;;;;;-145.06;0.00;60892.56;4856138;28;20029;-85
2022/01/07 05:26:37;;;;;;;2.38;1.30;;;;;;;-145.06;0.00;60892.56;4855579;28;20041;-84
2022/01/07 05:29:16;;;;;;;2.50;1.30;;;;;;;-145.06;0.00;60892.56;4855575;28;20045;-86
2022/01/07 05:31:54;;;;;;;1.88;1.00;;;;;;;-145.06;0.00;60892.56;4854541;28;20076;-85
2022/01/07 05:34:34;;;;;;;1.13;0.93;;;;;;;-145.06;0.00;60892.56;4854538;28;20108;-85
2022/01/07 05:37:13;;;;;;;3.90;1.10;;;;;;;-145.06;0.00;60892.56;4855600;28;20487;-86
2022/01/07 05:39:52;;;;;;;1.55;1.23;;;;;;;-145.06;0.00;60892.56;4854865;28;20037;-86
2022/01/07 05:42:31;;;;;;;0.83;0.70;;;;;;;-145.06;0.00;60892.56;4841183;28;20041;-86
2022/01/07 05:45:10;;;;;;;2.37;1.20;;;;;;;-145.06;0.00;60892.56;4854489;28;20260;-84
2022/01/07 05:47:49;;;;;;;1.50;0.90;;;;;;;-145.06;0.00;60892.56;4856647;28;20033;-84
2022/01/07 05:50:28;;;;;;;1.53;1.10;;;;;;;-145.06;0.00;60892.56;4850994;28;20029;-85
2022/01/07 05:53:07;;;;;;;0.95;0.82;;;;;;;-145.06;0.00;60892.56;4855691;28;20033;-84
2022/01/07 05:55:46;;;;;;;1.33;0.80;;;;;;;-145.06;0.00;60892.56;4854469;28;20025;-85
2022/01/07 05:58:24;;;;;;;1.73;0.98;;;;;;;-145.06;0.00;60892.56;4854787;28;20037;-85
2022/01/07 06:01:09;;;;;;;0.70;0.63;;;;;;;-145.06;0.00;60892.56;4853568;28;20112;-85
2022/01/07 06:03:48;;;;;;;0.93;0.73;;;;;;;-145.06;0.00;60892.56;4859511;28;20017;-85
2022/01/07 06:06:27;;;;;;;2.13;0.90;;;;;;;-145.06;0.00;60892.56;4848133;28;20021;-85
2022/01/07 06:09:06;;;;;;;1.20;0.87;;;;;;;-145.06;0.00;60892.56;4855718;28;20112;-85
2022/01/07 06:11:45;;;;;;;1.30;0.93;;;;;;;-145.06;0.00;60892.56;4846222;28;20682;-85
2022/01/07 06:14:24;;;;;;;1.77;0.93;;;;;;;-145.06;0.00;60892.56;4855871;28;20025;-86
2022/01/07 06:17:03;;;;;;;1.52;1.00;;;;;;;-145.06;0.00;60892.56;4855277;28;20136;-86
2022/01/07 06:19:42;;;;;;;1.23;1.00;;;;;;;-145.06;0.00;60892.56;4853955;28;20078;-85
2022/01/07 06:22:21;;;;;;;4.83;1.00;;;;;;;-145.06;0.00;60892.56;4874116;28;20041;-85
2022/01/07 06:25:01;;;;;;;1.40;1.10;;;;;;;-145.06;0.00;60892.56;4869728;28;20025;-86
2022/01/07 06:27:40;;;;;;;1.00;0.90;;;;;;;-145.06;0.00;60892.56;4854434;28;20033;-85
2022/01/07 06:30:20;;;;;;;1.35;0.90;;;;;;;-145.06;0.00;60892.56;4853809;28;20472;-85
2022/01/07 06:32:59;;;;;;;2.17;1.20;;;;;;;-145.06;0.00;60892.56;4855281;28;20041;-84
2022/01/07 06:35:38;;;;;;;1.70;1.23;;;;;;;-145.06;0.00;60892.56;4853185;28;20034;-86
2022/01/07 06:38:16;;;;;;;1.92;1.30;;;;;;;-145.06;0.00;60892.56;4848424;28;20264;-86
2022/01/07 06:40:56;;;;;;;1.83;1.20;;;;;;;-145.06;0.00;60892.56;4854251;28;20041;-85
2022/01/07 06:43:35;;;;;;;1.67;1.20;;;;;;;-145.06;0.00;60892.56;4855603;28;20100;-85
2022/01/07 06:46:14;;;;;;;1.58;0.90;;;;;;;-145.06;0.00;60892.56;4854346;28;20041;-85
2022/01/07 06:48:54;;;;;;;1.40;1.00;;;;;;;-145.06;0.00;60892.56;4855392;28;20127;-85
2022/01/07 06:51:33;;;;;;;1.92;1.02;;;;;;;21.08;0.00;60892.56;4863002;28;20024;-85
2022/01/07 06:54:11;;;;;;;1.90;0.90;;;;;;;-145.06;0.00;60892.56;4842665;28;20448;-86
2022/01/07 06:56:50;;;;;;;1.42;1.00;;;;;;;-145.06;0.00;60892.56;4840044;28;20037;-85
2022/01/07 06:59:29;;;;;;;1.10;0.80;;;;;;;-145.06;0.00;60892.56;4853415;28;20029;-85
2022/01/07 07:02:08;;;;;;;0.75;0.73;;;;;;;-145.06;0.00;60892.56;4849782;28;20351;-86
2022/01/07 07:04:47;;;;;;;1.30;0.70;;;;;;;-145.06;0.00;60892.56;4859723;28;20057;-86
2022/01/07 07:07:26;;;;;;;2.28;1.95;;;;;;;-145.06;0.00;60892.56;4853973;28;20037;-85
2022/01/07 07:10:05;;;;;;;2.20;1.90;;;;;;;-145.06;0.00;60892.56;4853914;28;20061;-84
2022/01/07 07:12:44;;;;;;;2.90;1.67;;;;;;;-145.06;0.00;60892.56;4866745;28;20487;-85
2022/01/07 07:15:23;;;;;;;1.50;1.30;;;;;;;-145.06;0.00;60892.56;4853265;28;20029;-85
2022/01/07 07:18:02;;;;;;;1.53;1.07;;;;;;;-145.06;0.00;60892.56;4855760;28;20256;-85
2022/01/07 07:20:41;;;;;;;1.52;1.00;;;;;;;-145.06;0.00;60892.56;4855115;28;20033;-85
2022/01/07 07:23:20;;;;;;;1.58;1.08;;;;;;;-145.06;0.00;60892.56;4849398;28;20030;-84
2022/01/07 07:25:59;;;;;;;1.03;1.00;;;;;;;-145.06;0.00;60892.56;4854442;28;20372;-85
2022/01/07 07:28:39;;;;;;;1.33;0.98;;;;;;;-145.06;0.00;60892.56;4854454;28;20756;-86
2022/01/07 07:31:19;;;;;;;0.70;0.70;;;;;;;-145.06;0.00;60892.56;4853544;28;20037;-85
2022/01/07 07:34:20;;;;;;;0.93;0.77;;;;;;;-145.06;0.00;60892.56;4866221;28;20029;-85
2022/01/07 07:37:01;;;;;;;1.83;0.80;;;;;;;-145.06;0.00;60892.56;4857276;28;20053;-85
2022/01/07 07:39:40;;;;;;;0.93;0.90;;;;;;;-145.06;0.00;60892.56;4857296;28;20029;-84
2022/01/07 07:42:19;;;;;;;1.20;0.80;;;;;;;-145.06;0.00;60892.56;4852802;28;20033;-86
2022/01/07 07:44:58;;;;;;;1.15;0.85;;;;;;;-145.06;0.00;60892.56;4853768;28;20029;-85
2022/01/07 07:47:37;;;;;;;0.97;0.80;;;;;;;-145.06;0.00;60892.56;4839459;28;20038;-85
2022/01/07 07:50:16;;;;;;;0.97;0.90;;;;;;;-145.06;0.00;60892.56;4860578;28;20041;-85
2022/01/07 07:52:55;;;;;;;1.13;0.83;;;;;;;-145.06;0.00;60892.56;4859129;28;20619;-85
2022/01/07 07:55:34;;;;;;;0.75;0.75;;;;;;;-145.06;0.00;60892.56;4858355;28;20687;-85
2022/01/07 07:58:13;;;;;;;0.80;0.60;;;;;;;-145.06;0.00;60892.56;4852429;28;20026;-85
2022/01/07 08:00:52;;;;;;;1.23;0.70;;;;;;;-145.06;0.00;60892.56;4857432;28;20037;-86
2022/01/07 08:03:31;;;;;;;1.00;0.90;;;;;;;-145.06;0.00;60892.56;4855614;28;20276;-85
2022/01/07 08:06:10;;;;;;;1.05;0.88;;;;;;;-145.06;0.00;60892.56;4863455;28;20029;-85
2022/01/07 08:08:49;;;;;;;1.42;1.33;;;;;;;-145.06;0.00;60892.56;4856710;28;20029;-85
2022/01/07 08:11:33;;;;;;;1.53;1.40;;;;;;;-145.06;0.00;60892.56;4848335;28;20042;-85
2022/01/07 08:17:10;;;;;;;0.80;0.80;;;;;;;-145.06;0.00;60892.56;4861456;28;20025;-84
2022/01/07 08:19:50;;;;;;;0.70;0.60;;;;;;;-145.06;0.00;60892.56;4854297;28;20028;-86
2022/01/07 08:22:30;;;;;;;0.90;0.77;;;;;;;-145.06;0.00;60892.56;4865191;28;20037;-86
2022/01/07 08:25:09;;;;;;;0.70;0.70;;;;;;;-145.06;0.00;60892.56;4858169;28;20025;-86
2022/01/07 08:27:49;;;;;;;0.63;0.60;;;;;;;-145.06;0.00;60892.56;4852170;28;20045;-86
2022/01/07 08:30:35;;;;;;;1.15;0.70;;;;;;;-145.06;0.00;60892.56;4850004;28;20045;-86
2022/01/07 08:36:14;;;;;;;1.17;0.80;;;;;;;-145.06;0.00;60892.56;4854521;28;20025;-84
2022/01/07 08:38:53;;;;;;;0.70;0.60;;;;;;;-145.06;0.00;60892.56;4852596;28;20060;-84
2022/01/07 08:41:34;;;;;;;1.02;0.60;;;;;;;-145.06;0.00;60892.56;4853230;28;20037;-85
2022/01/07 08:44:13;;;;;;;0.50;0.50;;;;;;;-145.06;0.00;60892.56;4855524;28;20029;-86
2022/01/07 08:46:52;;;;;;;0.77;0.70;;;;;;;-145.06;0.00;60892.56;4860564;28;20037;-86
2022/01/07 08:49:31;;;;;;;0.70;0.60;;;;;;;-145.06;0.00;60892.56;4850572;28;20826;-87
2022/01/07 08:52:10;;;;;;;0.50;0.50;;;;;;;-145.06;0.00;60892.56;4854712;28;20049;-87
2022/01/07 08:54:50;;;;;;;0.60;0.40;;;;;;;-145.06;0.00;60892.56;4853978;28;20790;-86
2022/01/07 08:57:29;;;;;;;0.80;0.80;;;;;;;-145.06;0.00;60892.56;4851558;28;20303;-86
2022/01/07 09:00:09;;;;;;;1.23;0.85;;;;;;;-145.06;0.00;60892.56;4854320;28;20037;-86
2022/01/07 09:02:47;;;;;;;0.85;0.80;;;;;;;-145.06;0.00;60892.56;4851446;28;20030;-86
2022/01/07 09:05:26;;;;;;;0.87;0.87;;;;;;;-145.06;0.00;60892.56;4853625;28;20451;-86
2022/01/07 09:08:12;;;;;;;0.70;0.70;;;;;;;-145.06;0.00;60892.56;4854215;28;20640;-88
2022/01/07 09:10:51;;;;;;;0.70;0.70;;;;;;;-145.06;0.00;60892.56;4856351;28;20033;-86
2022/01/07 09:13:30;;;;;;;0.75;0.68;;;;;;;-145.06;0.00;60892.56;4845710;28;20034;-86
2022/01/07 09:16:09;;;;;;;0.93;0.70;;;;;;;-145.06;0.00;60892.56;4856240;28;20037;-87
2022/01/07 09:18:49;;;;;;;0.70;0.68;;;;;;;-145.06;0.00;60892.56;4860977;28;20036;-88
2022/01/07 09:21:27;;;;;;;1.10;0.68;;;;;;;-145.06;0.00;60892.56;4854161;28;20037;-86
2022/01/07 09:24:07;;;;;;;0.70;0.60;;;;;;;-145.06;0.00;60892.56;4852493;28;20041;-85
2022/01/07 09:26:46;;;;;;;;;;;;;;;-145.06;0.00;60892.56;4849248;28;20287;-85
2022/01/07 09:29:27;;;;;;;0.60;0.50;;;;;;;-145.06;0.00;60892.56;4859075;28;19909;-85
2022/01/07 09:32:06;;;;;;;0.70;0.68;;;;;;;-145.06;0.00;60892.56;4853256;28;20296;-86
2022/01/07 09:34:45;;;;;;;0.90;0.63;;;;;;;-145.06;0.00;60892.56;4858032;28;20038;-86
2022/01/07 09:37:24;;;;;;;0.63;0.63;;;;;;;-145.06;0.00;60892.56;4854159;28;20041;-86
2022/01/07 09:40:04;;;;;;;0.70;0.50;;;;;;;-145.06;0.00;60892.56;4854959;28;20041;-87
2022/01/07 09:43:14;;;;;;;0.63;0.52;;;;;;;-145.06;0.00;60892.56;4853319;28;20120;-85
2022/01/07 09:45:53;;;;;;;2.05;0.70;;;;;;;-145.06;0.00;60892.56;4856335;28;20049;-86
2022/01/07 09:48:32;;;;;;;0.50;0.50;;;;;;;5.19;0.00;60892.56;4859323;28;20065;-86
2022/01/07 09:51:15;;;;;;;0.50;0.50;;;;;;;-145.06;0.00;60892.56;4850580;28;20026;-85
2022/01/07 09:53:54;;;;;;;1.48;0.50;;;;;;;-145.06;0.00;60892.56;4852334;28;20034;-86
2022/01/07 09:56:33;;;;;;;0.40;0.40;;;;;;;-145.06;0.00;60892.56;4843670;28;20100;-86
2022/01/07 09:59:12;;;;;;;0.60;0.60;;;;;;;5.41;0.00;60892.56;4855292;28;20029;-85
2022/01/07 10:01:55;;;;;;;0.52;0.45;;;;;;;5.42;0.00;60892.56;4850866;28;20616;-85
2022/01/07 10:04:36;;;;;;;0.50;0.40;;;;;;;5.49;0.00;60892.56;4863207;28;20494;-85
2022/01/07 10:07:23;;;;;;;0.50;0.50;;;;;;;-145.06;0.00;60892.56;4852916;28;20025;-86
2022/01/07 10:10:10;;;;;;;0.40;0.40;;;;;;;5.81;0.00;60892.56;4868625;28;20037;-86
2022/01/07 10:13:06;;;;;;;0.47;0.40;;;;;;;-145.06;0.00;60892.56;4850502;28;20029;-85
2022/01/07 10:15:44;;;;;;;0.70;0.40;;;;;;;-145.06;0.00;60892.56;4855604;28;20030;-85
2022/01/07 10:18:36;;;;;;;0.60;0.60;;;;;;;-145.06;0.00;60892.56;4845872;28;20033;-86
2022/01/07 10:21:17;;;;;;;0.70;0.70;;;;;;;-145.06;0.00;60892.56;4850867;28;20033;-87
2022/01/07 10:24:02;;;;;;;0.70;0.60;;;;;;;6.79;0.00;60892.56;4862772;28;20033;-85
2022/01/07 10:26:42;;;;;;;1.13;0.60;;;;;;;8.08;0.00;60892.56;4854454;28;20022;-85
2022/01/07 10:29:28;;;;;;;0.60;0.60;;;;;;;6.79;0.00;60892.56;4854908;28;20041;-86
2022/01/07 10:32:29;;;;;;;0.70;0.60;;;;;;;-145.06;0.00;60892.56;4855040;28;20061;-86
2022/01/07 10:35:15;;;;;;;0.90;0.60;;;;;;;-145.06;0.00;60892.56;4850049;28;20412;-86
2022/01/07 10:38:00;;;;;;;0.80;0.70;;;;;;;-145.06;0.00;60892.56;4875186;28;20479;-86
2022/01/07 10:40:41;;;;;;;0.70;0.70;;;;;;;6.79;0.00;60892.56;4861043;28;20110;-85
2022/01/07 10:43:25;;;;;;;0.82;0.60;;;;;;;8.08;0.00;60892.56;4845490;28;20767;-86
2022/01/07 10:46:07;;;;;;;0.77;0.40;;;;;;;-145.06;0.00;60892.56;4846279;28;20030;-86
2022/01/07 10:48:55;;;;;;;1.80;0.70;;;;;;;-145.06;0.00;60892.56;4841678;28;20064;-84
2022/01/07 10:51:38;;;;;;;1.58;0.82;;;;;;;-145.06;0.00;60892.56;4844815;28;20033;-85
2022/01/07 10:54:19;;;;;;;1.98;1.20;;;;;;;-145.06;0.00;60892.56;4846335;28;20025;-85
2022/01/07 10:57:09;;;;;;;1.00;0.77;;;;;;;-145.06;0.00;60892.56;4845233;28;20479;-86
2022/01/07 11:00:07;;;;;;;1.75;0.82;;;;;;;-145.06;0.00;60892.56;4853249;28;20491;-86
2022/01/07 11:02:47;;;;;;;1.10;0.82;;;;;;;-145.06;0.00;60892.56;4840293;28;20634;-85
2022/01/07 11:05:26;;;;;;;;;;;;;;;-145.06;0.00;60892.56;4848316;28;20053;-85
2022/01/07 11:08:05;;;;;;;0.80;0.60;;;;;;;-145.06;0.00;60892.56;4850971;28;20008;-85
2022/01/07 11:10:44;;;;;;;1.53;0.67;;;;;;;-145.06;0.00;60892.56;4850239;28;20034;-86
2022/01/07 11:13:23;;;;;;;1.17;0.73;;;;;;;-145.06;0.00;60892.56;4852767;28;20443;-85
2022/01/07 11:16:03;;;;;;;1.20;0.80;;;;;;;6.62;0.00;60892.56;4851219;28;20387;-86
2022/01/07 11:18:43;;;;;;;;;;;;;;;6.79;0.00;60892.56;4851312;28;20045;-86
2022/01/07 11:21:22;;;;;;;0.80;0.60;;;;;;;-145.06;0.00;60892.56;4847812;28;19917;-86
2022/01/07 11:24:35;;;;;;;0.98;0.80;;;;;;;7.11;0.00;60892.56;4860399;28;20033;-86
2022/01/07 11:27:16;;;;;;;1.23;0.65;;;;;;;-145.06;0.00;60892.56;4848996;28;20029;-87
2022/01/07 11:30:08;;;;;;;1.90;0.85;;;;;;;-145.06;0.00;60892.56;4849489;28;20483;-86
2022/01/07 11:32:48;;;;;;;1.42;0.85;;;;;;;7.44;0.00;60892.56;4860275;28;20495;-87
2022/01/07 11:35:27;;;;;;;2.33;1.00;;;;;;;-145.06;0.00;60892.56;4852748;28;20029;-88
2022/01/07 11:38:13;;;;;;;1.20;1.00;;;;;;;-145.06;0.00;60892.56;4849903;28;20045;-86
2022/01/07 11:40:52;;;;;;;1.80;1.00;;;;;;;10.68;0.00;60892.56;4851562;28;20577;-86
2022/01/07 11:43:35;;;;;;;1.98;1.10;;;;;;;7.11;0.00;60892.56;4865401;28;20040;-86
2022/01/07 11:46:41;;;;;;;2.03;1.00;;;;;;;-145.06;0.00;60892.56;4863063;28;20483;-86
2022/01/07 11:50:01;;;;;;;1.60;1.02;;;;;;;-145.06;0.00;60892.56;4851686;28;20120;-86
2022/01/07 11:52:40;;;;;;;2.35;1.00;;;;;;;7.44;0.00;60892.56;4839582;28;20037;-88
2022/01/07 11:55:23;;;;;;;1.83;1.00;;;;;;;-145.06;0.00;60892.56;4848480;28;20763;-85
2022/01/07 11:58:08;;;;;;;1.83;1.10;;;;;;;-145.06;0.00;60892.56;4850295;28;21594;-87
2022/01/07 12:00:51;;;;;;;3.53;1.25;;;;;;;-145.06;0.00;60892.56;4850286;28;20064;-87
2022/01/07 12:03:45;;;;;;;1.30;0.90;;;;;;;-145.06;0.00;60892.56;4849833;28;20037;-87
2022/01/07 12:06:24;;;;;;;2.50;1.25;;;;;;;-145.06;0.00;60892.56;4854687;28;20033;-88
2022/01/07 12:09:05;;;;;;;4.37;1.57;;;;;;;-145.06;0.00;60892.56;4849512;28;20037;-87
2022/01/07 12:11:45;;;;;;;2.45;1.17;;;;;;;7.76;0.00;60892.56;4855438;28;20033;-88
2022/01/07 12:14:29;;;;;;;2.38;1.30;;;;;;;-145.06;0.00;60892.56;4852162;28;20033;-87
2022/01/07 12:17:13;;;;;;;2.38;1.00;;;;;;;7.60;0.00;60892.56;4848637;28;20037;-87
2022/01/07 12:19:52;;;;;;;2.20;1.20;;;;;;;-145.06;0.00;60892.56;4854671;28;20069;-87
2022/01/07 12:22:32;;;;;;;3.20;1.50;;;;;;;7.68;0.00;60892.56;4851178;28;20033;-86
2022/01/07 12:25:11;;;;;;;2.42;1.23;;;;;;;7.72;0.00;60892.56;4852174;28;20041;-87
2022/01/07 12:28:00;;;;;;;2.20;1.35;;;;;;;-145.06;0.00;60892.56;4845725;28;20037;-86
2022/01/07 12:30:41;;;;;;;1.93;1.13;;;;;;;-145.06;0.00;60892.56;4852546;28;20060;-87
2022/01/07 12:33:20;;;;;;;3.00;1.30;;;;;;;-145.06;0.00;60892.56;4846603;28;20268;-88
2022/01/07 12:35:59;;;;;;;3.85;1.75;;;;;;;8.08;0.00;60892.56;4849629;28;20734;-88
2022/01/07 12:38:39;;;;;;;4.57;1.40;;;;;;;-145.06;0.00;60892.56;4846296;28;20037;-88